createdAt,value
2022-10-08T00:00:02.538Z,1001.98
2022-10-08T00:00:12.552Z,1001.94
2022-10-08T00:00:22.545Z,1001.98
2022-10-08T00:00:32.535Z,1001.95
2022-10-08T00:00:42.530Z,1001.94
2022-10-08T00:00:52.550Z,1001.92
2022-10-08T00:01:02.633Z,1001.92
2022-10-08T00:01:12.543Z,1001.90
2022-10-08T00:01:22.544Z,1001.93
2022-10-08T00:01:32.580Z,1001.93
2022-10-08T00:01:42.645Z,1001.93
2022-10-08T00:01:52.572Z,1001.99
2022-10-08T00:02:02.633Z,1001.94
2022-10-08T00:02:12.584Z,1001.94
2022-10-08T00:02:22.528Z,1001.93
2022-10-08T00:02:32.597Z,1001.96
2022-10-08T00:02:43.232Z,1001.90
2022-10-08T00:02:52.568Z,1001.90
2022-10-08T00:03:03.339Z,1001.91
2022-10-08T00:03:12.639Z,1001.88
2022-10-08T00:03:22.522Z,1001.96
2022-10-08T00:03:32.527Z,1001.89
2022-10-08T00:03:42.536Z,1001.92
2022-10-08T00:03:52.553Z,1001.92
2022-10-08T00:04:02.592Z,1001.93
2022-10-08T00:04:12.632Z,1001.87
2022-10-08T00:04:22.607Z,1001.89
2022-10-08T00:04:32.621Z,1001.89
2022-10-08T00:04:42.549Z,1001.91
2022-10-08T00:04:52.535Z,1001.91
2022-10-08T00:05:02.628Z,1001.88
2022-10-08T00:05:13.229Z,1001.89
2022-10-08T00:05:22.516Z,1001.93
2022-10-08T00:05:32.530Z,1001.88
2022-10-08T00:05:43.241Z,1001.92
2022-10-08T00:05:52.518Z,1001.91
2022-10-08T00:06:02.525Z,1001.94
2022-10-08T00:06:12.625Z,1001.88
2022-10-08T00:06:22.519Z,1001.92
2022-10-08T00:06:32.532Z,1001.91
2022-10-08T00:06:42.502Z,1001.90
2022-10-08T00:06:52.517Z,1001.92
2022-10-08T00:07:02.499Z,1001.91
2022-10-08T00:07:12.529Z,1001.91
2022-10-08T00:07:22.503Z,1001.92
2022-10-08T00:07:32.536Z,1001.89
2022-10-08T00:07:42.508Z,1001.88
2022-10-08T00:07:52.515Z,1001.86
2022-10-08T00:08:02.547Z,1001.91
2022-10-08T00:08:12.571Z,1001.85
2022-10-08T00:08:22.537Z,1001.91
2022-10-08T00:08:32.502Z,1001.90
2022-10-08T00:08:42.495Z,1001.91
2022-10-08T00:08:52.555Z,1001.89
2022-10-08T00:09:02.508Z,1001.90
2022-10-08T00:09:13.230Z,1001.86
2022-10-08T00:09:23.239Z,1001.90
2022-10-08T00:09:32.509Z,1001.91
2022-10-08T00:09:42.500Z,1001.88
2022-10-08T00:09:52.576Z,1001.88
2022-10-08T00:10:02.483Z,1001.89
2022-10-08T00:10:12.501Z,1001.83
2022-10-08T00:10:22.486Z,1001.85
2022-10-08T00:10:33.213Z,1001.90
2022-10-08T00:10:42.498Z,1001.90
2022-10-08T00:10:52.486Z,1001.88
2022-10-08T00:11:03.220Z,1001.90
2022-10-08T00:11:12.493Z,1001.87
2022-10-08T00:11:22.772Z,1001.90
2022-10-08T00:11:32.596Z,1001.86
2022-10-08T00:11:42.506Z,1001.88
2022-10-08T00:11:52.493Z,1001.86
2022-10-08T00:12:02.479Z,1001.87
2022-10-08T00:12:12.520Z,1001.90
2022-10-08T00:12:22.477Z,1001.89
2022-10-08T00:12:33.226Z,1001.87
2022-10-08T00:12:42.484Z,1001.88
2022-10-08T00:12:52.476Z,1001.85
2022-10-08T00:13:02.503Z,1001.89
2022-10-08T00:13:12.510Z,1001.89
2022-10-08T00:13:22.500Z,1001.87
2022-10-08T00:13:33.229Z,1001.86
2022-10-08T00:13:42.497Z,1001.87
2022-10-08T00:13:52.475Z,1001.88
2022-10-08T00:14:02.482Z,1001.85
2022-10-08T00:14:12.576Z,1001.88
2022-10-08T00:14:22.478Z,1001.89
2022-10-08T00:14:32.501Z,1001.87
2022-10-08T00:14:42.463Z,1001.88
2022-10-08T00:14:52.497Z,1001.90
2022-10-08T00:15:03.268Z,1001.91
2022-10-08T00:15:12.471Z,1001.90
2022-10-08T00:15:22.558Z,1001.90
2022-10-08T00:15:33.220Z,1001.88
2022-10-08T00:15:42.476Z,1001.90
2022-10-08T00:15:52.511Z,1001.89
2022-10-08T00:16:02.593Z,1001.87
2022-10-08T00:16:12.700Z,1001.89
2022-10-08T00:16:23.387Z,1001.88
2022-10-08T00:16:32.952Z,1001.86
2022-10-08T00:16:42.513Z,1001.89
2022-10-08T00:16:52.471Z,1001.88
2022-10-08T00:17:02.451Z,1001.88
2022-10-08T00:17:12.479Z,1001.89
2022-10-08T00:17:22.472Z,1001.89
2022-10-08T00:17:32.479Z,1001.88
2022-10-08T00:17:42.679Z,1001.93
2022-10-08T00:17:52.478Z,1001.91
2022-10-08T00:18:02.448Z,1001.93
2022-10-08T00:18:12.469Z,1001.91
2022-10-08T00:18:22.476Z,1001.88
2022-10-08T00:18:32.459Z,1001.91
2022-10-08T00:18:42.459Z,1001.93
2022-10-08T00:18:52.463Z,1001.92
2022-10-08T00:19:02.475Z,1001.88
2022-10-08T00:19:12.462Z,1001.91
2022-10-08T00:19:22.474Z,1001.95
2022-10-08T00:19:32.447Z,1001.92
2022-10-08T00:19:43.216Z,1001.90
2022-10-08T00:19:52.461Z,1001.93
2022-10-08T00:20:02.451Z,1001.90
2022-10-08T00:20:12.444Z,1001.89
2022-10-08T00:20:22.445Z,1001.91
2022-10-08T00:20:32.459Z,1001.87
2022-10-08T00:20:42.446Z,1001.90
2022-10-08T00:20:52.440Z,1001.86
2022-10-08T00:21:02.433Z,1001.86
2022-10-08T00:21:12.456Z,1001.82
2022-10-08T00:21:22.446Z,1001.88
2022-10-08T00:21:32.504Z,1001.86
2022-10-08T00:21:42.806Z,1001.85
2022-10-08T00:21:52.442Z,1001.85
2022-10-08T00:22:02.441Z,1001.87
2022-10-08T00:22:12.454Z,1001.85
2022-10-08T00:22:22.436Z,1001.83
2022-10-08T00:22:32.434Z,1001.83
2022-10-08T00:22:42.430Z,1001.84
2022-10-08T00:22:52.463Z,1001.86
2022-10-08T00:23:02.443Z,1001.83
2022-10-08T00:23:12.431Z,1001.85
2022-10-08T00:23:22.470Z,1001.85
2022-10-08T00:23:32.436Z,1001.83
2022-10-08T00:23:42.435Z,1001.83
2022-10-08T00:23:52.478Z,1001.86
2022-10-08T00:24:02.469Z,1001.82
2022-10-08T00:24:12.434Z,1001.85
2022-10-08T00:24:22.429Z,1001.83
2022-10-08T00:24:32.445Z,1001.82
2022-10-08T00:24:42.427Z,1001.82
2022-10-08T00:24:52.605Z,1001.83
2022-10-08T00:25:03.214Z,1001.83
2022-10-08T00:25:12.430Z,1001.77
2022-10-08T00:25:22.434Z,1001.79
2022-10-08T00:25:33.276Z,1001.78
2022-10-08T00:25:42.425Z,1001.81
2022-10-08T00:25:53.249Z,1001.83
2022-10-08T00:26:02.415Z,1001.79
2022-10-08T00:26:12.438Z,1001.83
2022-10-08T00:26:22.478Z,1001.77
2022-10-08T00:26:32.423Z,1001.74
2022-10-08T00:26:44.182Z,1001.77
2022-10-08T00:26:52.463Z,1001.76
2022-10-08T00:27:02.487Z,1001.77
2022-10-08T00:27:12.446Z,1001.82
2022-10-08T00:27:22.423Z,1001.80
2022-10-08T00:27:32.415Z,1001.81
2022-10-08T00:27:42.408Z,1001.79
2022-10-08T00:27:52.474Z,1001.80
2022-10-08T00:28:02.551Z,1001.81
2022-10-08T00:28:12.502Z,1001.79
2022-10-08T00:28:22.520Z,1001.82
2022-10-08T00:28:32.445Z,1001.77
2022-10-08T00:28:42.460Z,1001.80
2022-10-08T00:28:53.224Z,1001.80
2022-10-08T00:29:02.397Z,1001.79
2022-10-08T00:29:12.433Z,1001.82
2022-10-08T00:29:22.596Z,1001.80
2022-10-08T00:29:32.411Z,1001.81
2022-10-08T00:29:42.424Z,1001.80
2022-10-08T00:29:52.403Z,1001.77
2022-10-08T00:30:03.232Z,1001.75
2022-10-08T00:30:12.539Z,1001.85
2022-10-08T00:30:22.393Z,1001.83
2022-10-08T00:30:32.411Z,1001.82
2022-10-08T00:30:42.391Z,1001.84
2022-10-08T00:30:52.403Z,1001.80
2022-10-08T00:31:02.451Z,1001.80
2022-10-08T00:31:12.533Z,1001.82
2022-10-08T00:31:22.510Z,1001.81
2022-10-08T00:31:32.540Z,1001.79
2022-10-08T00:31:42.458Z,1001.79
2022-10-08T00:31:52.452Z,1001.77
2022-10-08T00:32:02.906Z,1001.77
2022-10-08T00:32:12.461Z,1001.76
2022-10-08T00:32:22.386Z,1001.78
2022-10-08T00:32:32.448Z,1001.75
2022-10-08T00:32:42.381Z,1001.78
2022-10-08T00:32:55.420Z,1001.72
2022-10-08T00:33:02.390Z,1001.80
2022-10-08T00:33:12.389Z,1001.76
2022-10-08T00:33:22.403Z,1001.70
2022-10-08T00:33:32.421Z,1001.74
2022-10-08T00:33:42.384Z,1001.72
2022-10-08T00:33:52.417Z,1001.72
2022-10-08T00:34:02.398Z,1001.74
2022-10-08T00:34:13.224Z,1001.77
2022-10-08T00:34:22.401Z,1001.74
2022-10-08T00:34:32.413Z,1001.77
2022-10-08T00:34:42.378Z,1001.76
2022-10-08T00:34:52.382Z,1001.78
2022-10-08T00:35:02.366Z,1001.77
2022-10-08T00:35:12.395Z,1001.78
2022-10-08T00:35:22.381Z,1001.76
2022-10-08T00:35:32.368Z,1001.74
2022-10-08T00:35:42.371Z,1001.76
2022-10-08T00:35:52.388Z,1001.75
2022-10-08T00:36:02.391Z,1001.73
2022-10-08T00:36:12.391Z,1001.72
2022-10-08T00:36:22.516Z,1001.70
2022-10-08T00:36:32.386Z,1001.71
2022-10-08T00:36:42.391Z,1001.71
2022-10-08T00:36:52.361Z,1001.74
2022-10-08T00:37:03.230Z,1001.70
2022-10-08T00:37:12.461Z,1001.68
2022-10-08T00:37:22.367Z,1001.71
2022-10-08T00:37:32.363Z,1001.70
2022-10-08T00:37:42.369Z,1001.69
2022-10-08T00:37:52.358Z,1001.72
2022-10-08T00:38:02.357Z,1001.67
2022-10-08T00:38:12.392Z,1001.70
2022-10-08T00:38:22.453Z,1001.75
2022-10-08T00:38:32.370Z,1001.70
2022-10-08T00:38:42.369Z,1001.71
2022-10-08T00:38:52.358Z,1001.73
2022-10-08T00:39:03.259Z,1001.71
2022-10-08T00:39:12.372Z,1001.69
2022-10-08T00:39:22.364Z,1001.71
2022-10-08T00:39:32.373Z,1001.74
2022-10-08T00:39:42.364Z,1001.72
2022-10-08T00:39:52.344Z,1001.68
2022-10-08T00:40:02.366Z,1001.71
2022-10-08T00:40:12.367Z,1001.70
2022-10-08T00:40:22.522Z,1001.71
2022-10-08T00:40:32.471Z,1001.69
2022-10-08T00:40:42.349Z,1001.70
2022-10-08T00:40:52.342Z,1001.70
2022-10-08T00:41:02.356Z,1001.72
2022-10-08T00:41:12.512Z,1001.71
2022-10-08T00:41:22.352Z,1001.74
2022-10-08T00:41:32.361Z,1001.74
2022-10-08T00:41:42.350Z,1001.68
2022-10-08T00:41:52.375Z,1001.73
2022-10-08T00:42:02.367Z,1001.70
2022-10-08T00:42:12.349Z,1001.71
2022-10-08T00:42:22.844Z,1001.72
2022-10-08T00:42:33.232Z,1001.71
2022-10-08T00:42:42.354Z,1001.74
2022-10-08T00:42:53.254Z,1001.75
2022-10-08T00:43:02.523Z,1001.69
2022-10-08T00:43:12.329Z,1001.74
2022-10-08T00:43:25.905Z,1001.76
2022-10-08T00:43:32.332Z,1001.72
2022-10-08T00:43:42.330Z,1001.75
2022-10-08T00:43:52.344Z,1001.74
2022-10-08T00:44:02.333Z,1001.71
2022-10-08T00:44:12.336Z,1001.70
2022-10-08T00:44:22.360Z,1001.73
2022-10-08T00:44:33.230Z,1001.73
2022-10-08T00:44:42.330Z,1001.73
2022-10-08T00:44:52.346Z,1001.68
2022-10-08T00:45:02.344Z,1001.69
2022-10-08T00:45:12.341Z,1001.69
2022-10-08T00:45:22.389Z,1001.70
2022-10-08T00:45:32.404Z,1001.69
2022-10-08T00:45:42.394Z,1001.66
2022-10-08T00:45:52.376Z,1001.67
2022-10-08T00:46:02.368Z,1001.72
2022-10-08T00:46:12.377Z,1001.68
2022-10-08T00:46:22.320Z,1001.70
2022-10-08T00:46:32.336Z,1001.65
2022-10-08T00:46:42.432Z,1001.66
2022-10-08T00:46:52.314Z,1001.67
2022-10-08T00:47:02.321Z,1001.69
2022-10-08T00:47:12.327Z,1001.67
2022-10-08T00:47:22.366Z,1001.68
2022-10-08T00:47:32.442Z,1001.66
2022-10-08T00:47:42.333Z,1001.67
2022-10-08T00:47:52.311Z,1001.66
2022-10-08T00:48:02.312Z,1001.64
2022-10-08T00:48:12.334Z,1001.65
2022-10-08T00:48:22.427Z,1001.65
2022-10-08T00:48:32.410Z,1001.67
2022-10-08T00:48:43.375Z,1001.63
2022-10-08T00:48:52.305Z,1001.67
2022-10-08T00:49:02.308Z,1001.62
2022-10-08T00:49:12.310Z,1001.65
2022-10-08T00:49:22.305Z,1001.60
2022-10-08T00:49:33.259Z,1001.65
2022-10-08T00:49:42.308Z,1001.62
2022-10-08T00:49:52.306Z,1001.62
2022-10-08T00:50:02.311Z,1001.60
2022-10-08T00:50:12.314Z,1001.64
2022-10-08T00:50:22.315Z,1001.59
2022-10-08T00:50:32.320Z,1001.61
2022-10-08T00:50:42.353Z,1001.60
2022-10-08T00:50:52.300Z,1001.59
2022-10-08T00:51:02.320Z,1001.61
2022-10-08T00:51:12.303Z,1001.57
2022-10-08T00:51:22.308Z,1001.58
2022-10-08T00:51:32.289Z,1001.59
2022-10-08T00:51:42.292Z,1001.59
2022-10-08T00:51:52.298Z,1001.55
2022-10-08T00:52:02.291Z,1001.59
2022-10-08T00:52:12.322Z,1001.57
2022-10-08T00:52:22.298Z,1001.57
2022-10-08T00:52:32.295Z,1001.55
2022-10-08T00:52:42.397Z,1001.57
2022-10-08T00:52:52.359Z,1001.57
2022-10-08T00:53:02.295Z,1001.59
2022-10-08T00:53:12.282Z,1001.60
2022-10-08T00:53:22.316Z,1001.57
2022-10-08T00:53:32.291Z,1001.56
2022-10-08T00:53:43.261Z,1001.57
2022-10-08T00:53:52.293Z,1001.60
2022-10-08T00:54:02.309Z,1001.54
2022-10-08T00:54:12.285Z,1001.59
2022-10-08T00:54:22.305Z,1001.59
2022-10-08T00:54:32.279Z,1001.57
2022-10-08T00:54:43.228Z,1001.62
2022-10-08T00:54:53.234Z,1001.60
2022-10-08T00:55:02.282Z,1001.59
2022-10-08T00:55:12.288Z,1001.62
2022-10-08T00:55:22.301Z,1001.56
2022-10-08T00:55:32.270Z,1001.60
2022-10-08T00:55:43.846Z,1001.58
2022-10-08T00:55:52.281Z,1001.58
2022-10-08T00:56:02.275Z,1001.57
2022-10-08T00:56:12.291Z,1001.54
2022-10-08T00:56:22.275Z,1001.55
2022-10-08T00:56:32.279Z,1001.53
2022-10-08T00:56:42.297Z,1001.55
2022-10-08T00:56:52.281Z,1001.59
2022-10-08T00:57:02.491Z,1001.53
2022-10-08T00:57:12.282Z,1001.57
2022-10-08T00:57:22.269Z,1001.51
2022-10-08T00:57:32.274Z,1001.52
2022-10-08T00:57:42.288Z,1001.59
2022-10-08T00:57:52.878Z,1001.52
2022-10-08T00:58:02.327Z,1001.56
2022-10-08T00:58:12.260Z,1001.56
2022-10-08T00:58:22.268Z,1001.52
2022-10-08T00:58:32.271Z,1001.57
2022-10-08T00:58:42.266Z,1001.54
2022-10-08T00:58:52.279Z,1001.58
2022-10-08T00:59:02.305Z,1001.54
2022-10-08T00:59:12.263Z,1001.52
2022-10-08T00:59:22.338Z,1001.53
2022-10-08T00:59:32.280Z,1001.47
2022-10-08T00:59:42.272Z,1001.45
2022-10-08T00:59:52.332Z,1001.45
2022-10-08T01:00:02.272Z,1001.48
2022-10-08T01:00:12.259Z,1001.48
2022-10-08T01:00:23.272Z,1001.47
2022-10-08T01:00:33.463Z,1001.45
2022-10-08T01:00:42.336Z,1001.51
2022-10-08T01:00:52.356Z,1001.46
2022-10-08T01:01:03.325Z,1001.47
2022-10-08T01:01:12.436Z,1001.50
2022-10-08T01:01:22.313Z,1001.42
2022-10-08T01:01:32.282Z,1001.45
2022-10-08T01:01:42.254Z,1001.43
2022-10-08T01:01:52.331Z,1001.41
2022-10-08T01:02:02.382Z,1001.45
2022-10-08T01:02:12.341Z,1001.48
2022-10-08T01:02:22.321Z,1001.44
2022-10-08T01:02:32.284Z,1001.47
2022-10-08T01:02:42.255Z,1001.43
2022-10-08T01:02:52.254Z,1001.46
2022-10-08T01:03:02.498Z,1001.47
2022-10-08T01:03:13.260Z,1001.43
2022-10-08T01:03:22.269Z,1001.45
2022-10-08T01:03:32.244Z,1001.46
2022-10-08T01:03:42.257Z,1001.49
2022-10-08T01:03:52.239Z,1001.51
2022-10-08T01:04:02.262Z,1001.44
2022-10-08T01:04:12.246Z,1001.47
2022-10-08T01:04:22.242Z,1001.43
2022-10-08T01:04:32.273Z,1001.42
2022-10-08T01:04:42.249Z,1001.45
2022-10-08T01:04:52.233Z,1001.39
2022-10-08T01:05:02.233Z,1001.39
2022-10-08T01:05:12.756Z,1001.39
2022-10-08T01:05:22.328Z,1001.38
2022-10-08T01:05:32.227Z,1001.39
2022-10-08T01:05:42.238Z,1001.37
2022-10-08T01:05:52.226Z,1001.41
2022-10-08T01:06:02.237Z,1001.36
2022-10-08T01:06:12.238Z,1001.42
2022-10-08T01:06:22.243Z,1001.36
2022-10-08T01:06:32.235Z,1001.37
2022-10-08T01:06:42.249Z,1001.39
2022-10-08T01:06:52.232Z,1001.35
2022-10-08T01:07:02.230Z,1001.38
2022-10-08T01:07:12.256Z,1001.35
2022-10-08T01:07:22.304Z,1001.35
2022-10-08T01:07:32.232Z,1001.36
2022-10-08T01:07:42.221Z,1001.38
2022-10-08T01:07:52.215Z,1001.38
2022-10-08T01:08:02.233Z,1001.36
2022-10-08T01:08:12.327Z,1001.38
2022-10-08T01:08:22.226Z,1001.36
2022-10-08T01:08:32.216Z,1001.40
2022-10-08T01:08:42.215Z,1001.41
2022-10-08T01:08:52.209Z,1001.38
2022-10-08T01:09:02.245Z,1001.37
2022-10-08T01:09:16.491Z,1001.33
2022-10-08T01:09:22.252Z,1001.36
2022-10-08T01:09:32.219Z,1001.32
2022-10-08T01:09:42.237Z,1001.35
2022-10-08T01:09:52.211Z,1001.30
2022-10-08T01:10:02.241Z,1001.34
2022-10-08T01:10:12.207Z,1001.33
2022-10-08T01:10:22.216Z,1001.35
2022-10-08T01:10:32.218Z,1001.36
2022-10-08T01:10:42.206Z,1001.34
2022-10-08T01:10:52.219Z,1001.36
2022-10-08T01:11:02.212Z,1001.30
2022-10-08T01:11:12.198Z,1001.32
2022-10-08T01:11:22.744Z,1001.34
2022-10-08T01:11:32.272Z,1001.34
2022-10-08T01:11:42.219Z,1001.34
2022-10-08T01:11:52.214Z,1001.34
2022-10-08T01:12:02.773Z,1001.35
2022-10-08T01:12:12.198Z,1001.35
2022-10-08T01:12:22.236Z,1001.37
2022-10-08T01:12:32.201Z,1001.37
2022-10-08T01:12:42.200Z,1001.29
2022-10-08T01:12:52.218Z,1001.33
2022-10-08T01:13:02.202Z,1001.34
2022-10-08T01:13:12.201Z,1001.31
2022-10-08T01:13:22.328Z,1001.31
2022-10-08T01:13:34.731Z,1001.34
2022-10-08T01:13:42.351Z,1001.30
2022-10-08T01:13:52.196Z,1001.33
2022-10-08T01:14:02.337Z,1001.26
2022-10-08T01:14:12.183Z,1001.32
2022-10-08T01:14:22.186Z,1001.33
2022-10-08T01:14:32.192Z,1001.35
2022-10-08T01:14:42.197Z,1001.28
2022-10-08T01:14:52.185Z,1001.30
2022-10-08T01:15:02.193Z,1001.28
2022-10-08T01:15:12.203Z,1001.28
2022-10-08T01:15:22.182Z,1001.32
2022-10-08T01:15:32.195Z,1001.29
2022-10-08T01:15:42.250Z,1001.28
2022-10-08T01:15:52.182Z,1001.31
2022-10-08T01:16:02.316Z,1001.29
2022-10-08T01:16:12.198Z,1001.30
2022-10-08T01:16:22.229Z,1001.31
2022-10-08T01:16:32.210Z,1001.32
2022-10-08T01:16:42.259Z,1001.30
2022-10-08T01:16:52.186Z,1001.27
2022-10-08T01:17:02.195Z,1001.26
2022-10-08T01:17:12.190Z,1001.32
2022-10-08T01:17:22.187Z,1001.30
2022-10-08T01:17:32.743Z,1001.35
2022-10-08T01:17:42.745Z,1001.32
2022-10-08T01:17:52.177Z,1001.31
2022-10-08T01:18:02.180Z,1001.34
2022-10-08T01:18:12.182Z,1001.34
2022-10-08T01:18:22.303Z,1001.33
2022-10-08T01:18:32.246Z,1001.33
2022-10-08T01:18:42.178Z,1001.32
2022-10-08T01:18:52.774Z,1001.34
2022-10-08T01:19:02.196Z,1001.29
2022-10-08T01:19:12.168Z,1001.33
2022-10-08T01:19:22.177Z,1001.32
2022-10-08T01:19:32.222Z,1001.31
2022-10-08T01:19:42.192Z,1001.33
2022-10-08T01:19:52.224Z,1001.33
2022-10-08T01:20:02.337Z,1001.33
2022-10-08T01:20:12.174Z,1001.34
2022-10-08T01:20:22.165Z,1001.33
2022-10-08T01:20:32.158Z,1001.32
2022-10-08T01:20:42.153Z,1001.30
2022-10-08T01:20:52.160Z,1001.35
2022-10-08T01:21:02.185Z,1001.32
2022-10-08T01:21:12.190Z,1001.31
2022-10-08T01:21:22.172Z,1001.37
2022-10-08T01:21:32.159Z,1001.35
2022-10-08T01:21:42.164Z,1001.31
2022-10-08T01:21:52.767Z,1001.36
2022-10-08T01:22:02.154Z,1001.35
2022-10-08T01:22:12.154Z,1001.32
2022-10-08T01:22:22.145Z,1001.32
2022-10-08T01:22:32.148Z,1001.30
2022-10-08T01:22:42.158Z,1001.31
2022-10-08T01:22:52.146Z,1001.38
2022-10-08T01:23:02.197Z,1001.32
2022-10-08T01:23:12.880Z,1001.34
2022-10-08T01:23:22.195Z,1001.32
2022-10-08T01:23:32.150Z,1001.33
2022-10-08T01:23:42.218Z,1001.35
2022-10-08T01:23:52.746Z,1001.34
2022-10-08T01:24:02.260Z,1001.34
2022-10-08T01:24:12.312Z,1001.32
2022-10-08T01:24:22.154Z,1001.32
2022-10-08T01:24:32.148Z,1001.30
2022-10-08T01:24:42.174Z,1001.34
2022-10-08T01:24:52.758Z,1001.32
2022-10-08T01:25:02.152Z,1001.32
2022-10-08T01:25:12.286Z,1001.30
2022-10-08T01:25:22.136Z,1001.32
2022-10-08T01:25:32.145Z,1001.34
2022-10-08T01:25:42.132Z,1001.35
2022-10-08T01:25:52.153Z,1001.32
2022-10-08T01:26:02.757Z,1001.33
2022-10-08T01:26:12.136Z,1001.31
2022-10-08T01:26:22.127Z,1001.34
2022-10-08T01:26:32.757Z,1001.34
2022-10-08T01:26:42.135Z,1001.36
2022-10-08T01:26:52.165Z,1001.32
2022-10-08T01:27:02.183Z,1001.31
2022-10-08T01:27:12.129Z,1001.29
2022-10-08T01:27:22.139Z,1001.33
2022-10-08T01:27:32.150Z,1001.30
2022-10-08T01:27:42.124Z,1001.34
2022-10-08T01:27:52.126Z,1001.32
2022-10-08T01:28:02.161Z,1001.33
2022-10-08T01:28:12.227Z,1001.29
2022-10-08T01:28:22.224Z,1001.28
2022-10-08T01:28:32.218Z,1001.29
2022-10-08T01:28:42.205Z,1001.31
2022-10-08T01:28:52.187Z,1001.29
2022-10-08T01:29:02.163Z,1001.30
2022-10-08T01:29:12.132Z,1001.27
2022-10-08T01:29:22.139Z,1001.28
2022-10-08T01:29:32.123Z,1001.24
2022-10-08T01:29:42.121Z,1001.28
2022-10-08T01:29:52.145Z,1001.23
2022-10-08T01:30:02.156Z,1001.25
2022-10-08T01:30:12.763Z,1001.24
2022-10-08T01:30:22.136Z,1001.25
2022-10-08T01:30:32.172Z,1001.26
2022-10-08T01:30:42.106Z,1001.19
2022-10-08T01:30:52.136Z,1001.26
2022-10-08T01:31:02.103Z,1001.25
2022-10-08T01:31:12.210Z,1001.26
2022-10-08T01:31:22.181Z,1001.24
2022-10-08T01:31:32.162Z,1001.21
2022-10-08T01:31:42.171Z,1001.22
2022-10-08T01:31:52.185Z,1001.23
2022-10-08T01:32:02.241Z,1001.27
2022-10-08T01:32:12.756Z,1001.23
2022-10-08T01:32:22.173Z,1001.25
2022-10-08T01:32:32.101Z,1001.19
2022-10-08T01:32:42.132Z,1001.21
2022-10-08T01:32:52.101Z,1001.19
2022-10-08T01:33:02.119Z,1001.23
2022-10-08T01:33:12.751Z,1001.20
2022-10-08T01:33:22.118Z,1001.18
2022-10-08T01:33:32.209Z,1001.14
2022-10-08T01:33:42.096Z,1001.14
2022-10-08T01:33:52.108Z,1001.13
2022-10-08T01:34:02.186Z,1001.10
2022-10-08T01:34:12.093Z,1001.08
2022-10-08T01:34:22.832Z,1001.12
2022-10-08T01:34:32.106Z,1001.13
2022-10-08T01:34:42.088Z,1001.12
2022-10-08T01:34:52.105Z,1001.14
2022-10-08T01:35:02.115Z,1001.13
2022-10-08T01:35:12.101Z,1001.19
2022-10-08T01:35:22.099Z,1001.18
2022-10-08T01:35:32.119Z,1001.14
2022-10-08T01:35:42.090Z,1001.15
2022-10-08T01:35:52.096Z,1001.16
2022-10-08T01:36:02.162Z,1001.12
2022-10-08T01:36:12.091Z,1001.11
2022-10-08T01:36:22.096Z,1001.17
2022-10-08T01:36:32.166Z,1001.15
2022-10-08T01:36:42.079Z,1001.14
2022-10-08T01:36:52.109Z,1001.15
2022-10-08T01:37:02.100Z,1001.15
2022-10-08T01:37:12.082Z,1001.14
2022-10-08T01:37:22.096Z,1001.14
2022-10-08T01:37:32.081Z,1001.11
2022-10-08T01:37:42.082Z,1001.14
2022-10-08T01:37:52.106Z,1001.12
2022-10-08T01:38:02.099Z,1001.11
2022-10-08T01:38:12.086Z,1001.06
2022-10-08T01:38:22.091Z,1001.02
2022-10-08T01:38:32.772Z,1001.05
2022-10-08T01:38:42.096Z,1001.03
2022-10-08T01:38:52.101Z,1000.99
2022-10-08T01:39:02.083Z,1001.01
2022-10-08T01:39:12.167Z,1001.02
2022-10-08T01:39:24.759Z,1001.01
2022-10-08T01:39:32.142Z,1001.03
2022-10-08T01:39:42.081Z,1000.99
2022-10-08T01:39:52.071Z,1001.02
2022-10-08T01:40:02.072Z,1001.06
2022-10-08T01:40:12.082Z,1001.09
2022-10-08T01:40:22.064Z,1001.08
2022-10-08T01:40:32.079Z,1001.09
2022-10-08T01:40:42.204Z,1001.06
2022-10-08T01:40:52.069Z,1001.10
2022-10-08T01:41:02.069Z,1001.08
2022-10-08T01:41:12.086Z,1001.12
2022-10-08T01:41:22.065Z,1001.11
2022-10-08T01:41:32.085Z,1001.15
2022-10-08T01:41:42.088Z,1001.13
2022-10-08T01:41:52.080Z,1001.14
2022-10-08T01:42:02.080Z,1001.14
2022-10-08T01:42:12.078Z,1001.12
2022-10-08T01:42:22.770Z,1001.13
2022-10-08T01:42:32.081Z,1001.15
2022-10-08T01:42:42.740Z,1001.12
2022-10-08T01:42:52.059Z,1001.12
2022-10-08T01:43:02.051Z,1001.15
2022-10-08T01:43:12.092Z,1001.12
2022-10-08T01:43:22.049Z,1001.14
2022-10-08T01:43:32.058Z,1001.14
2022-10-08T01:43:42.055Z,1001.09
2022-10-08T01:43:52.052Z,1001.08
2022-10-08T01:44:02.064Z,1001.10
2022-10-08T01:44:12.062Z,1001.09
2022-10-08T01:44:22.152Z,1001.07
2022-10-08T01:44:32.163Z,1001.09
2022-10-08T01:44:42.742Z,1001.08
2022-10-08T01:44:52.155Z,1001.11
2022-10-08T01:45:02.059Z,1001.11
2022-10-08T01:45:12.769Z,1001.08
2022-10-08T01:45:22.098Z,1001.07
2022-10-08T01:45:32.126Z,1001.08
2022-10-08T01:45:42.217Z,1001.07
2022-10-08T01:45:52.099Z,1001.09
2022-10-08T01:46:02.122Z,1001.12
2022-10-08T01:46:12.182Z,1001.09
2022-10-08T01:46:22.063Z,1001.15
2022-10-08T01:46:32.042Z,1001.16
2022-10-08T01:46:42.841Z,1001.12
2022-10-08T01:46:52.769Z,1001.12
2022-10-08T01:47:02.050Z,1001.12
2022-10-08T01:47:12.044Z,1001.09
2022-10-08T01:47:22.045Z,1001.05
2022-10-08T01:47:32.031Z,1001.07
2022-10-08T01:47:42.035Z,1001.08
2022-10-08T01:47:52.054Z,1001.11
2022-10-08T01:48:02.027Z,1001.09
2022-10-08T01:48:12.050Z,1001.08
2022-10-08T01:48:22.107Z,1001.09
2022-10-08T01:48:32.046Z,1001.07
2022-10-08T01:48:42.039Z,1001.02
2022-10-08T01:48:52.745Z,1001.05
2022-10-08T01:49:02.026Z,1001.07
2022-10-08T01:49:12.059Z,1001.05
2022-10-08T01:49:22.023Z,1001.03
2022-10-08T01:49:32.118Z,1000.99
2022-10-08T01:49:42.033Z,1001.00
2022-10-08T01:49:52.030Z,1001.01
2022-10-08T01:50:02.021Z,1001.01
2022-10-08T01:50:12.054Z,1001.01
2022-10-08T01:50:22.023Z,1001.01
2022-10-08T01:50:32.019Z,1001.00
2022-10-08T01:50:42.051Z,1000.92
2022-10-08T01:50:52.031Z,1000.99
2022-10-08T01:51:02.113Z,1000.99
2022-10-08T01:51:12.023Z,1001.03
2022-10-08T01:51:22.024Z,1001.01
2022-10-08T01:51:32.758Z,1001.03
2022-10-08T01:51:42.035Z,1000.99
2022-10-08T01:51:52.018Z,1001.03
2022-10-08T01:52:02.011Z,1001.02
2022-10-08T01:52:12.038Z,1001.02
2022-10-08T01:52:22.019Z,1001.02
2022-10-08T01:52:32.008Z,1001.08
2022-10-08T01:52:42.007Z,1001.07
2022-10-08T01:52:52.051Z,1001.05
2022-10-08T01:53:02.768Z,1001.08
2022-10-08T01:53:12.128Z,1001.06
2022-10-08T01:53:22.016Z,1001.05
2022-10-08T01:53:32.018Z,1001.07
2022-10-08T01:53:42.006Z,1001.05
2022-10-08T01:53:52.036Z,1001.05
2022-10-08T01:54:02.016Z,1001.06
2022-10-08T01:54:12.009Z,1001.08
2022-10-08T01:54:21.997Z,1001.05
2022-10-08T01:54:32.000Z,1001.02
2022-10-08T01:54:42.111Z,1001.02
2022-10-08T01:54:52.111Z,1001.01
2022-10-08T01:55:02.766Z,1001.03
2022-10-08T01:55:12.098Z,1001.02
2022-10-08T01:55:21.994Z,1001.03
2022-10-08T01:55:31.996Z,1001.02
2022-10-08T01:55:42.014Z,1001.04
2022-10-08T01:55:52.010Z,1001.04
2022-10-08T01:56:02.004Z,1001.06
2022-10-08T01:56:11.999Z,1001.06
2022-10-08T01:56:22.013Z,1001.09
2022-10-08T01:56:31.992Z,1001.10
2022-10-08T01:56:42.006Z,1001.09
2022-10-08T01:56:52.003Z,1001.09
2022-10-08T01:57:01.992Z,1001.07
2022-10-08T01:57:12.756Z,1001.11
2022-10-08T01:57:22.001Z,1001.09
2022-10-08T01:57:31.997Z,1001.09
2022-10-08T01:57:41.999Z,1001.05
2022-10-08T01:57:52.008Z,1001.05
2022-10-08T01:58:01.993Z,1001.07
2022-10-08T01:58:11.982Z,1001.04
2022-10-08T01:58:21.980Z,1001.02
2022-10-08T01:58:31.983Z,1000.99
2022-10-08T01:58:41.995Z,1001.01
2022-10-08T01:58:51.979Z,1001.01
2022-10-08T01:59:01.988Z,1000.99
2022-10-08T01:59:12.067Z,1000.98
2022-10-08T01:59:22.748Z,1000.98
2022-10-08T01:59:31.986Z,1001.00
2022-10-08T01:59:41.990Z,1000.97
2022-10-08T01:59:52.827Z,1000.93
2022-10-08T02:00:01.980Z,1000.93
2022-10-08T02:00:11.972Z,1000.97
2022-10-08T02:00:21.972Z,1000.93
2022-10-08T02:00:32.784Z,1000.97
2022-10-08T02:00:42.035Z,1000.96
2022-10-08T02:00:52.010Z,1000.94